DARAJ65 VEJH-OPKC
Flight info
| Callsign | DARAJ65 |
|---|---|
| Flight time | 2h 28m |
| Altitude | FL400 |
| Route | ENTAP L759 IBUDA A791 PRA A325 KE KE1A |
| Aircraft | CL60/M-SADE3FGHIJ3J4J7P2RWXY/HB1D1 |
Departure
| Time | 2026-05-04 23:51 |
|---|---|
| Airport | Jharsuguda Airport (VEJH) |
Arrival
| Time | 2026-05-05 02:19 |
|---|---|
| Airport | Jinnah International Airport (OPKC) |
| Time | Latitude | Longitude | Altitude | Speed | Heading |
|---|---|---|---|---|---|
| 2026-05-04 23:28 | 21.91521 | 84.04774 | 740 ft | 0 kts | 95° |
| 2026-05-04 23:44 | 21.91516 | 84.04840 | 740 ft | 10 kts | 94° |
| 2026-05-04 23:44 | 21.91500 | 84.04933 | 740 ft | 16 kts | 129° |
| 2026-05-04 23:44 | 21.91392 | 84.04984 | 740 ft | 18 kts | 159° |
| 2026-05-04 23:45 | 21.91273 | 84.04974 | 740 ft | 17 kts | 231° |
| 2026-05-04 23:45 | 21.91213 | 84.04859 | 741 ft | 19 kts | 243° |
| 2026-05-04 23:45 | 21.91150 | 84.04724 | 742 ft | 20 kts | 244° |
| 2026-05-04 23:45 | 21.91083 | 84.04578 | 742 ft | 22 kts | 243° |
| 2026-05-04 23:46 | 21.91003 | 84.04414 | 742 ft | 24 kts | 242° |
| 2026-05-04 23:46 | 21.90938 | 84.04278 | 742 ft | 4 kts | 246° |
| 2026-05-04 23:46 | 21.90929 | 84.04220 | 742 ft | 1 kts | 252° |
| 2026-05-04 23:46 | 21.90914 | 84.04223 | 742 ft | 1 kts | 84° |
| 2026-05-04 23:47 | 21.90922 | 84.04241 | 742 ft | 0 kts | 63° |
| 2026-05-04 23:50 | 21.90936 | 84.04270 | 741 ft | 23 kts | 63° |
| 2026-05-04 23:50 | 21.91118 | 84.04648 | 741 ft | 100 kts | 63° |
| 2026-05-04 23:50 | 21.91537 | 84.05521 | 741 ft | 164 kts | 62° |
| 2026-05-04 23:50 | 21.92156 | 84.06786 | 1145 ft | 187 kts | 63° |
| 2026-05-04 23:51 | 21.92759 | 84.07921 | 2299 ft | 172 kts | 52° |
| 2026-05-04 23:51 | 21.93799 | 84.08434 | 3232 ft | 173 kts | 357° |
| 2026-05-04 23:51 | 21.94837 | 84.07871 | 3972 ft | 172 kts | 302° |
| 2026-05-04 23:51 | 21.95027 | 84.06618 | 4649 ft | 166 kts | 246° |
| 2026-05-04 23:52 | 21.94498 | 84.05364 | 5129 ft | 183 kts | 250° |
| 2026-05-04 23:52 | 21.94361 | 84.03810 | 5697 ft | 200 kts | 277° |
| 2026-05-04 23:52 | 21.94707 | 84.02210 | 6292 ft | 212 kts | 283° |
| 2026-05-04 23:52 | 21.95098 | 84.00565 | 6993 ft | 217 kts | 282° |
| 2026-05-04 23:53 | 21.95482 | 83.98934 | 7728 ft | 220 kts | 283° |
| 2026-05-04 23:53 | 21.95896 | 83.97173 | 8490 ft | 229 kts | 283° |
| 2026-05-04 23:53 | 21.96332 | 83.95314 | 9080 ft | 248 kts | 283° |
| 2026-05-04 23:53 | 21.96795 | 83.93340 | 9645 ft | 267 kts | 283° |
| 2026-05-04 23:54 | 21.97297 | 83.91197 | 10453 ft | 277 kts | 284° |
| 2026-05-04 23:54 | 21.97820 | 83.88968 | 11372 ft | 283 kts | 284° |
| 2026-05-04 23:54 | 21.98333 | 83.86777 | 12272 ft | 287 kts | 284° |
| 2026-05-04 23:54 | 21.98823 | 83.84684 | 13187 ft | 289 kts | 285° |
| 2026-05-04 23:55 | 21.99323 | 83.82545 | 14051 ft | 292 kts | 284° |
| 2026-05-04 23:55 | 21.99853 | 83.80273 | 14898 ft | 295 kts | 284° |
| 2026-05-04 23:55 | 22.00889 | 83.75835 | 16400 ft | 303 kts | 283° |
| 2026-05-04 23:56 | 22.01452 | 83.73417 | 17027 ft | 312 kts | 283° |
| 2026-05-04 23:56 | 22.02038 | 83.70890 | 17209 ft | 335 kts | 283° |
| 2026-05-04 23:56 | 22.02657 | 83.68227 | 17618 ft | 348 kts | 283° |
| 2026-05-04 23:56 | 22.03289 | 83.65506 | 18238 ft | 354 kts | 283° |
| 2026-05-04 23:57 | 22.03942 | 83.62695 | 18908 ft | 358 kts | 283° |
| 2026-05-04 23:57 | 22.04560 | 83.60028 | 19559 ft | 360 kts | 282° |
| 2026-05-04 23:57 | 22.05197 | 83.57282 | 20186 ft | 363 kts | 282° |
| 2026-05-04 23:57 | 22.05821 | 83.54587 | 20806 ft | 365 kts | 282° |
| 2026-05-04 23:58 | 22.06463 | 83.51816 | 21381 ft | 368 kts | 281° |
| 2026-05-04 23:58 | 22.07119 | 83.48999 | 21951 ft | 371 kts | 283° |
| 2026-05-04 23:58 | 22.08204 | 83.46264 | 22532 ft | 379 kts | 299° |
| 2026-05-04 23:58 | 22.09930 | 83.43779 | 23064 ft | 384 kts | 304° |
| 2026-05-04 23:59 | 22.11608 | 83.41502 | 23573 ft | 387 kts | 304° |
| 2026-05-04 23:59 | 22.13374 | 83.39101 | 24085 ft | 388 kts | 304° |
| 2026-05-04 23:59 | 22.15169 | 83.36660 | 24595 ft | 390 kts | 304° |
| 2026-05-04 23:59 | 22.16948 | 83.34239 | 25101 ft | 391 kts | 303° |
| 2026-05-05 00:00 | 22.18651 | 83.31931 | 25545 ft | 394 kts | 304° |
| 2026-05-05 00:00 | 22.19235 | 83.31162 | 25684 ft | 395 kts | 304° |
| 2026-05-05 00:00 | 22.22366 | 83.27096 | 26416 ft | 399 kts | 304° |
| 2026-05-05 00:00 | 22.24295 | 83.24592 | 26861 ft | 400 kts | 303° |
| 2026-05-05 00:01 | 22.26172 | 83.22152 | 27234 ft | 403 kts | 303° |
| 2026-05-05 00:01 | 22.28065 | 83.19691 | 27610 ft | 405 kts | 303° |
| 2026-05-05 00:01 | 22.29997 | 83.17178 | 27995 ft | 407 kts | 303° |
| 2026-05-05 00:01 | 22.31938 | 83.14651 | 28353 ft | 409 kts | 303° |
| 2026-05-05 00:02 | 22.33842 | 83.12174 | 28722 ft | 411 kts | 303° |
| 2026-05-05 00:02 | 22.35770 | 83.09661 | 29062 ft | 413 kts | 303° |
| 2026-05-05 00:02 | 22.37690 | 83.07159 | 29393 ft | 415 kts | 303° |
| 2026-05-05 00:02 | 22.39649 | 83.04605 | 29752 ft | 416 kts | 303° |
| 2026-05-05 00:03 | 22.41595 | 83.02067 | 30114 ft | 417 kts | 303° |
| 2026-05-05 00:03 | 22.43527 | 82.99545 | 30418 ft | 418 kts | 303° |
| 2026-05-05 00:03 | 22.45501 | 82.96967 | 30696 ft | 421 kts | 303° |
| 2026-05-05 00:03 | 22.47501 | 82.94353 | 30998 ft | 422 kts | 303° |
| 2026-05-05 00:04 | 22.49499 | 82.91742 | 31285 ft | 423 kts | 303° |
| 2026-05-05 00:04 | 22.51474 | 82.89159 | 31548 ft | 424 kts | 303° |
| 2026-05-05 00:04 | 22.53507 | 82.86499 | 31811 ft | 425 kts | 303° |
| 2026-05-05 00:04 | 22.55457 | 82.83947 | 32056 ft | 426 kts | 303° |
| 2026-05-05 00:05 | 22.57378 | 82.81430 | 32262 ft | 428 kts | 303° |
| 2026-05-05 00:05 | 22.59394 | 82.78787 | 32495 ft | 430 kts | 303° |
| 2026-05-05 00:05 | 22.61420 | 82.76132 | 32748 ft | 431 kts | 303° |
| 2026-05-05 00:05 | 22.63442 | 82.73481 | 33000 ft | 431 kts | 303° |
| 2026-05-05 00:06 | 22.65443 | 82.70854 | 33243 ft | 432 kts | 303° |
| 2026-05-05 00:06 | 22.67400 | 82.68285 | 33448 ft | 433 kts | 303° |
| 2026-05-05 00:06 | 22.69469 | 82.65566 | 33620 ft | 435 kts | 303° |
| 2026-05-05 00:06 | 22.71511 | 82.62883 | 33871 ft | 434 kts | 303° |
| 2026-05-05 00:07 | 22.73546 | 82.60207 | 34091 ft | 435 kts | 304° |
| 2026-05-05 00:07 | 22.75646 | 82.57444 | 34368 ft | 434 kts | 303° |
| 2026-05-05 00:07 | 22.77714 | 82.54722 | 34645 ft | 433 kts | 303° |
| 2026-05-05 00:07 | 22.79730 | 82.52067 | 34928 ft | 431 kts | 303° |
| 2026-05-05 00:08 | 22.81724 | 82.49440 | 35122 ft | 431 kts | 304° |
| 2026-05-05 00:08 | 22.83781 | 82.46727 | 35345 ft | 431 kts | 303° |
| 2026-05-05 00:08 | 22.85814 | 82.44044 | 35513 ft | 431 kts | 303° |
| 2026-05-05 00:08 | 22.87770 | 82.41462 | 35704 ft | 430 kts | 304° |
| 2026-05-05 00:09 | 22.89780 | 82.38808 | 35876 ft | 430 kts | 304° |
| 2026-05-05 00:09 | 22.91815 | 82.36118 | 36028 ft | 430 kts | 304° |
| 2026-05-05 00:09 | 22.93772 | 82.33510 | 36160 ft | 430 kts | 302° |
| 2026-05-05 00:09 | 22.95552 | 82.30655 | 36293 ft | 425 kts | 294° |
| 2026-05-05 00:10 | 22.96954 | 82.27543 | 36439 ft | 421 kts | 287° |
| 2026-05-05 00:10 | 22.97945 | 82.24290 | 36583 ft | 417 kts | 280° |
| 2026-05-05 00:10 | 22.98543 | 82.21025 | 36717 ft | 415 kts | 275° |
| 2026-05-05 00:10 | 22.98910 | 82.17881 | 36885 ft | 414 kts | 274° |
| 2026-05-05 00:11 | 22.99265 | 82.14753 | 37021 ft | 414 kts | 274° |
| 2026-05-05 00:11 | 22.99623 | 82.11626 | 37138 ft | 414 kts | 274° |
| 2026-05-05 00:11 | 22.99985 | 82.08455 | 37246 ft | 414 kts | 274° |
| 2026-05-05 00:11 | 23.00338 | 82.05369 | 37368 ft | 414 kts | 274° |
| 2026-05-05 00:12 | 23.00712 | 82.02111 | 37508 ft | 413 kts | 274° |
| 2026-05-05 00:12 | 23.01085 | 81.98851 | 37636 ft | 413 kts | 274° |
| 2026-05-05 00:12 | 23.01451 | 81.95650 | 37798 ft | 412 kts | 274° |
| 2026-05-05 00:12 | 23.01824 | 81.92398 | 37956 ft | 411 kts | 274° |
| 2026-05-05 00:13 | 23.02198 | 81.89125 | 38116 ft | 411 kts | 274° |
| 2026-05-05 00:13 | 23.02570 | 81.85869 | 38257 ft | 410 kts | 274° |
| 2026-05-05 00:13 | 23.02933 | 81.82689 | 38412 ft | 409 kts | 275° |
| 2026-05-05 00:13 | 23.03280 | 81.79642 | 38556 ft | 409 kts | 275° |
| 2026-05-05 00:14 | 23.03633 | 81.76543 | 38650 ft | 409 kts | 274° |
| 2026-05-05 00:14 | 23.03997 | 81.73343 | 38754 ft | 409 kts | 274° |
| 2026-05-05 00:14 | 23.04362 | 81.70135 | 38866 ft | 408 kts | 274° |
| 2026-05-05 00:14 | 23.04733 | 81.66860 | 38970 ft | 408 kts | 275° |
| 2026-05-05 00:15 | 23.05104 | 81.63591 | 39114 ft | 407 kts | 274° |
| 2026-05-05 00:15 | 23.05830 | 81.57162 | 39263 ft | 407 kts | 275° |
| 2026-05-05 00:16 | 23.06533 | 81.50925 | 39461 ft | 406 kts | 275° |
| 2026-05-05 00:16 | 23.06891 | 81.47740 | 39564 ft | 405 kts | 275° |
| 2026-05-05 00:16 | 23.07235 | 81.44678 | 39638 ft | 404 kts | 275° |
| 2026-05-05 00:16 | 23.07589 | 81.41520 | 39742 ft | 403 kts | 275° |
| 2026-05-05 00:17 | 23.07936 | 81.38410 | 39805 ft | 403 kts | 275° |
| 2026-05-05 00:17 | 23.08618 | 81.32301 | 39921 ft | 402 kts | 274° |
| 2026-05-05 00:18 | 23.09318 | 81.26003 | 39938 ft | 404 kts | 275° |
| 2026-05-05 00:18 | 23.10010 | 81.19752 | 39940 ft | 403 kts | 275° |
| 2026-05-05 00:19 | 23.10697 | 81.13525 | 39953 ft | 402 kts | 275° |
| 2026-05-05 00:19 | 23.11396 | 81.07175 | 39962 ft | 401 kts | 275° |
| 2026-05-05 00:20 | 23.12099 | 81.00758 | 39957 ft | 400 kts | 275° |
| 2026-05-05 00:20 | 23.12771 | 80.94602 | 39950 ft | 399 kts | 275° |
| 2026-05-05 00:21 | 23.13442 | 80.88440 | 39951 ft | 398 kts | 275° |
| 2026-05-05 00:21 | 23.14119 | 80.82194 | 39943 ft | 399 kts | 275° |
| 2026-05-05 00:22 | 23.14785 | 80.75943 | 39932 ft | 399 kts | 274° |
| 2026-05-05 00:22 | 23.15185 | 80.69637 | 39939 ft | 400 kts | 272° |
| 2026-05-05 00:23 | 23.15519 | 80.63217 | 39920 ft | 400 kts | 272° |
| 2026-05-05 00:23 | 23.15846 | 80.56955 | 39919 ft | 400 kts | 272° |
| 2026-05-05 00:24 | 23.16171 | 80.50743 | 39903 ft | 400 kts | 272° |
| 2026-05-05 00:24 | 23.16504 | 80.44391 | 39892 ft | 400 kts | 272° |
| 2026-05-05 00:25 | 23.16827 | 80.38200 | 39895 ft | 400 kts | 272° |
| 2026-05-05 00:25 | 23.17141 | 80.32165 | 39889 ft | 401 kts | 272° |
| 2026-05-05 00:26 | 23.17462 | 80.25971 | 39867 ft | 401 kts | 272° |
| 2026-05-05 00:26 | 23.17777 | 80.19862 | 39873 ft | 401 kts | 272° |
| 2026-05-05 00:27 | 23.18099 | 80.13577 | 39861 ft | 402 kts | 272° |
| 2026-05-05 00:27 | 23.18427 | 80.07131 | 39852 ft | 403 kts | 272° |
| 2026-05-05 00:28 | 23.18711 | 80.00920 | 39850 ft | 403 kts | 272° |
| 2026-05-05 00:28 | 23.18983 | 79.94714 | 39847 ft | 404 kts | 272° |
| 2026-05-05 00:29 | 23.19250 | 79.88553 | 39846 ft | 404 kts | 272° |
| 2026-05-05 00:29 | 23.19526 | 79.82157 | 39858 ft | 404 kts | 272° |
| 2026-05-05 00:30 | 23.19797 | 79.75789 | 39853 ft | 404 kts | 272° |
| 2026-05-05 00:30 | 23.20077 | 79.69179 | 39842 ft | 405 kts | 272° |
| 2026-05-05 00:31 | 23.20347 | 79.62739 | 39838 ft | 405 kts | 272° |
| 2026-05-05 00:31 | 23.20614 | 79.56276 | 39839 ft | 405 kts | 272° |
| 2026-05-05 00:32 | 23.20771 | 79.49746 | 39832 ft | 406 kts | 271° |
| 2026-05-05 00:32 | 23.20881 | 79.43150 | 39833 ft | 406 kts | 271° |
| 2026-05-05 00:33 | 23.20992 | 79.36571 | 39834 ft | 407 kts | 271° |
| 2026-05-05 00:33 | 23.21103 | 79.30018 | 39839 ft | 408 kts | 271° |
| 2026-05-05 00:34 | 23.21212 | 79.23436 | 39844 ft | 409 kts | 271° |
| 2026-05-05 00:34 | 23.21322 | 79.16738 | 39838 ft | 410 kts | 270° |
| 2026-05-05 00:35 | 23.21430 | 79.10075 | 39849 ft | 411 kts | 271° |
| 2026-05-05 00:35 | 23.21535 | 79.03421 | 39853 ft | 411 kts | 270° |
| 2026-05-05 00:36 | 23.21637 | 78.96816 | 39852 ft | 412 kts | 271° |
| 2026-05-05 00:36 | 23.21738 | 78.90137 | 39852 ft | 413 kts | 271° |
| 2026-05-05 00:37 | 23.21839 | 78.83341 | 39850 ft | 413 kts | 271° |
| 2026-05-05 00:37 | 23.21934 | 78.76704 | 39849 ft | 413 kts | 271° |
| 2026-05-05 00:38 | 23.22163 | 78.69921 | 39845 ft | 413 kts | 273° |
| 2026-05-05 00:38 | 23.22496 | 78.63169 | 39848 ft | 413 kts | 273° |
| 2026-05-05 00:39 | 23.22826 | 78.56388 | 39835 ft | 413 kts | 273° |
| 2026-05-05 00:39 | 23.23152 | 78.49623 | 39833 ft | 413 kts | 273° |
| 2026-05-05 00:40 | 23.23476 | 78.42850 | 39834 ft | 413 kts | 273° |
| 2026-05-05 00:40 | 23.23787 | 78.36300 | 39846 ft | 413 kts | 273° |
| 2026-05-05 00:41 | 23.24088 | 78.29864 | 39848 ft | 413 kts | 273° |
| 2026-05-05 00:41 | 23.24397 | 78.23212 | 39851 ft | 414 kts | 272° |
| 2026-05-05 00:42 | 23.24698 | 78.16681 | 39845 ft | 415 kts | 272° |
| 2026-05-05 00:42 | 23.25004 | 78.09981 | 39845 ft | 415 kts | 273° |
| 2026-05-05 00:43 | 23.25301 | 78.03401 | 39841 ft | 416 kts | 273° |
| 2026-05-05 00:43 | 23.25602 | 77.96683 | 39856 ft | 416 kts | 273° |
| 2026-05-05 00:44 | 23.25894 | 77.90095 | 39869 ft | 416 kts | 273° |
| 2026-05-05 00:44 | 23.26190 | 77.83372 | 39872 ft | 416 kts | 273° |
| 2026-05-05 00:45 | 23.26475 | 77.76812 | 39877 ft | 417 kts | 273° |
| 2026-05-05 00:45 | 23.26762 | 77.70148 | 39883 ft | 417 kts | 273° |
| 2026-05-05 00:46 | 23.27041 | 77.63610 | 39881 ft | 417 kts | 273° |
| 2026-05-05 00:46 | 23.27319 | 77.57050 | 39883 ft | 417 kts | 273° |
| 2026-05-05 00:47 | 23.27591 | 77.50548 | 39872 ft | 418 kts | 273° |
| 2026-05-05 00:47 | 23.27860 | 77.44044 | 39882 ft | 418 kts | 273° |
| 2026-05-05 00:48 | 23.28125 | 77.37601 | 39868 ft | 418 kts | 273° |
| 2026-05-05 00:48 | 23.29045 | 77.31243 | 39881 ft | 418 kts | 286° |
| 2026-05-05 00:49 | 23.30868 | 77.25174 | 39878 ft | 419 kts | 287° |
| 2026-05-05 00:49 | 23.32826 | 77.18645 | 39893 ft | 420 kts | 287° |
| 2026-05-05 00:50 | 23.34755 | 77.12209 | 39887 ft | 421 kts | 287° |
| 2026-05-05 00:50 | 23.36720 | 77.05644 | 39898 ft | 421 kts | 287° |
| 2026-05-05 00:51 | 23.38646 | 76.99204 | 39902 ft | 420 kts | 287° |
| 2026-05-05 00:51 | 23.40578 | 76.92730 | 39900 ft | 420 kts | 287° |
| 2026-05-05 00:52 | 23.42541 | 76.86147 | 39898 ft | 420 kts | 287° |
| 2026-05-05 00:52 | 23.44471 | 76.79663 | 39894 ft | 420 kts | 287° |
| 2026-05-05 00:53 | 23.46417 | 76.73117 | 39893 ft | 419 kts | 287° |
| 2026-05-05 00:53 | 23.48327 | 76.66684 | 39896 ft | 419 kts | 287° |
| 2026-05-05 00:54 | 23.50250 | 76.60193 | 39896 ft | 418 kts | 287° |
| 2026-05-05 00:54 | 23.52171 | 76.53698 | 39902 ft | 417 kts | 287° |
| 2026-05-05 00:55 | 23.54081 | 76.47232 | 39910 ft | 417 kts | 287° |
| 2026-05-05 00:55 | 23.55992 | 76.40746 | 39910 ft | 416 kts | 287° |
| 2026-05-05 00:56 | 23.57873 | 76.34356 | 39911 ft | 415 kts | 287° |
| 2026-05-05 00:56 | 23.59765 | 76.27915 | 39912 ft | 416 kts | 287° |
| 2026-05-05 00:57 | 23.61664 | 76.21438 | 39906 ft | 416 kts | 287° |
| 2026-05-05 00:57 | 23.63571 | 76.14926 | 39913 ft | 416 kts | 287° |
| 2026-05-05 00:58 | 23.65450 | 76.08494 | 39918 ft | 415 kts | 287° |
| 2026-05-05 00:58 | 23.67356 | 76.01960 | 39907 ft | 414 kts | 287° |
| 2026-05-05 00:59 | 23.69201 | 75.95607 | 39901 ft | 414 kts | 287° |
| 2026-05-05 00:59 | 23.71088 | 75.89083 | 39906 ft | 413 kts | 287° |
| 2026-05-05 01:00 | 23.72931 | 75.82699 | 39906 ft | 413 kts | 287° |
| 2026-05-05 01:00 | 23.74804 | 75.76202 | 39903 ft | 413 kts | 287° |
| 2026-05-05 01:01 | 23.76656 | 75.69764 | 39908 ft | 412 kts | 287° |
| 2026-05-05 01:01 | 23.78516 | 75.63286 | 39915 ft | 412 kts | 287° |
| 2026-05-05 01:02 | 23.80352 | 75.56884 | 39912 ft | 411 kts | 287° |
| 2026-05-05 01:02 | 23.82200 | 75.50429 | 39908 ft | 411 kts | 287° |
| 2026-05-05 01:03 | 23.84035 | 75.44002 | 39913 ft | 410 kts | 287° |
| 2026-05-05 01:03 | 23.85836 | 75.37690 | 39912 ft | 409 kts | 287° |
| 2026-05-05 01:04 | 23.87615 | 75.31440 | 39917 ft | 409 kts | 287° |
| 2026-05-05 01:04 | 23.90327 | 75.21897 | 39921 ft | 409 kts | 287° |
| 2026-05-05 01:05 | 23.92125 | 75.15554 | 39936 ft | 408 kts | 287° |
| 2026-05-05 01:05 | 23.93914 | 75.09231 | 39929 ft | 408 kts | 287° |
| 2026-05-05 01:06 | 23.95693 | 75.02933 | 39911 ft | 409 kts | 287° |
| 2026-05-05 01:06 | 23.97466 | 74.96644 | 39919 ft | 409 kts | 287° |
| 2026-05-05 01:07 | 23.99232 | 74.90370 | 39911 ft | 409 kts | 287° |
| 2026-05-05 01:07 | 24.00989 | 74.84117 | 39917 ft | 408 kts | 287° |
| 2026-05-05 01:08 | 24.02769 | 74.77771 | 39911 ft | 407 kts | 287° |
| 2026-05-05 01:08 | 24.04641 | 74.71382 | 39916 ft | 407 kts | 289° |
| 2026-05-05 01:09 | 24.06570 | 74.65138 | 39903 ft | 406 kts | 289° |
| 2026-05-05 01:09 | 24.08516 | 74.58821 | 39895 ft | 405 kts | 289° |
| 2026-05-05 01:10 | 24.10399 | 74.52702 | 39886 ft | 405 kts | 289° |
| 2026-05-05 01:10 | 24.12288 | 74.46552 | 39875 ft | 404 kts | 289° |
| 2026-05-05 01:11 | 24.14198 | 74.40323 | 39876 ft | 404 kts | 289° |
| 2026-05-05 01:11 | 24.16094 | 74.34126 | 39874 ft | 403 kts | 289° |
| 2026-05-05 01:12 | 24.17960 | 74.28022 | 39876 ft | 404 kts | 289° |
| 2026-05-05 01:12 | 24.19875 | 74.21744 | 39876 ft | 405 kts | 289° |
| 2026-05-05 01:13 | 24.21788 | 74.15467 | 39873 ft | 405 kts | 289° |
| 2026-05-05 01:13 | 24.23728 | 74.09248 | 39872 ft | 405 kts | 289° |
| 2026-05-05 01:14 | 24.25681 | 74.02988 | 39866 ft | 406 kts | 289° |
| 2026-05-05 01:14 | 24.27598 | 73.96837 | 39869 ft | 406 kts | 289° |
| 2026-05-05 01:15 | 24.29554 | 73.90547 | 39883 ft | 406 kts | 289° |
| 2026-05-05 01:15 | 24.31448 | 73.84444 | 39886 ft | 406 kts | 289° |
| 2026-05-05 01:16 | 24.33371 | 73.78239 | 39896 ft | 406 kts | 289° |
| 2026-05-05 01:16 | 24.35277 | 73.72079 | 39891 ft | 406 kts | 289° |
| 2026-05-05 01:17 | 24.37170 | 73.65951 | 39891 ft | 406 kts | 289° |
| 2026-05-05 01:17 | 24.39073 | 73.59780 | 39892 ft | 406 kts | 289° |
| 2026-05-05 01:18 | 24.40984 | 73.53571 | 39895 ft | 406 kts | 289° |
| 2026-05-05 01:18 | 24.42901 | 73.47335 | 39889 ft | 406 kts | 289° |
| 2026-05-05 01:19 | 24.44817 | 73.41088 | 39880 ft | 406 kts | 289° |
| 2026-05-05 01:19 | 24.46724 | 73.34865 | 39883 ft | 406 kts | 289° |
| 2026-05-05 01:20 | 24.48600 | 73.28730 | 39883 ft | 407 kts | 289° |
| 2026-05-05 01:20 | 24.50493 | 73.22530 | 39881 ft | 408 kts | 289° |
| 2026-05-05 01:21 | 24.52355 | 73.16422 | 39879 ft | 408 kts | 289° |
| 2026-05-05 01:21 | 24.54167 | 73.10465 | 39877 ft | 408 kts | 289° |
| 2026-05-05 01:22 | 24.55973 | 73.04524 | 39869 ft | 408 kts | 289° |
| 2026-05-05 01:22 | 24.57776 | 72.98578 | 39858 ft | 408 kts | 289° |
| 2026-05-05 01:23 | 24.59678 | 72.92297 | 39857 ft | 407 kts | 289° |
| 2026-05-05 01:23 | 24.61569 | 72.86044 | 39838 ft | 406 kts | 289° |
| 2026-05-05 01:24 | 24.63429 | 72.79880 | 39822 ft | 406 kts | 289° |
| 2026-05-05 01:24 | 24.65306 | 72.73655 | 39823 ft | 406 kts | 289° |
| 2026-05-05 01:25 | 24.67190 | 72.67392 | 39829 ft | 406 kts | 289° |
| 2026-05-05 01:25 | 24.69088 | 72.61070 | 39830 ft | 406 kts | 289° |
| 2026-05-05 01:26 | 24.70967 | 72.54803 | 39818 ft | 406 kts | 289° |
| 2026-05-05 01:26 | 24.72842 | 72.48539 | 39815 ft | 406 kts | 289° |
| 2026-05-05 01:27 | 24.74716 | 72.42270 | 39812 ft | 406 kts | 289° |
| 2026-05-05 01:27 | 24.76588 | 72.35995 | 39801 ft | 406 kts | 289° |
| 2026-05-05 01:28 | 24.78449 | 72.29747 | 39799 ft | 407 kts | 289° |
| 2026-05-05 01:28 | 24.80332 | 72.23412 | 39805 ft | 407 kts | 289° |
| 2026-05-05 01:29 | 24.82195 | 72.17133 | 39796 ft | 406 kts | 289° |
| 2026-05-05 01:29 | 24.84077 | 72.10784 | 39792 ft | 406 kts | 289° |
| 2026-05-05 01:30 | 24.85933 | 72.04510 | 39781 ft | 406 kts | 289° |
| 2026-05-05 01:30 | 24.87763 | 71.98313 | 39776 ft | 406 kts | 289° |
| 2026-05-05 01:31 | 24.89618 | 71.92022 | 39773 ft | 406 kts | 289° |
| 2026-05-05 01:31 | 24.91440 | 71.85832 | 39774 ft | 406 kts | 289° |
| 2026-05-05 01:32 | 24.93295 | 71.79519 | 39766 ft | 407 kts | 289° |
| 2026-05-05 01:32 | 24.95143 | 71.73220 | 39762 ft | 407 kts | 289° |
| 2026-05-05 01:33 | 24.97027 | 71.66784 | 39750 ft | 407 kts | 289° |
| 2026-05-05 01:33 | 24.98847 | 71.60559 | 39743 ft | 407 kts | 289° |
| 2026-05-05 01:34 | 25.00622 | 71.54476 | 39741 ft | 407 kts | 289° |
| 2026-05-05 01:34 | 25.02460 | 71.48168 | 39746 ft | 407 kts | 289° |
| 2026-05-05 01:35 | 25.04304 | 71.41831 | 39753 ft | 406 kts | 289° |
| 2026-05-05 01:35 | 25.06127 | 71.35550 | 39753 ft | 406 kts | 289° |
| 2026-05-05 01:36 | 25.07938 | 71.29303 | 39753 ft | 407 kts | 289° |
| 2026-05-05 01:36 | 25.09783 | 71.22924 | 39763 ft | 407 kts | 289° |
| 2026-05-05 01:37 | 25.11555 | 71.16790 | 39772 ft | 408 kts | 289° |
| 2026-05-05 01:37 | 25.13391 | 71.10423 | 39775 ft | 407 kts | 288° |
| 2026-05-05 01:38 | 25.15221 | 71.04066 | 39777 ft | 407 kts | 288° |
| 2026-05-05 01:38 | 25.17044 | 70.97723 | 39781 ft | 407 kts | 288° |
| 2026-05-05 01:39 | 25.18851 | 70.91421 | 39779 ft | 408 kts | 289° |
| 2026-05-05 01:39 | 25.20682 | 70.85028 | 39768 ft | 407 kts | 288° |
| 2026-05-05 01:40 | 25.22479 | 70.78740 | 39760 ft | 407 kts | 288° |
| 2026-05-05 01:40 | 25.24276 | 70.72367 | 39761 ft | 407 kts | 288° |
| 2026-05-05 01:41 | 25.26002 | 70.66100 | 39759 ft | 407 kts | 288° |
| 2026-05-05 01:41 | 25.27719 | 70.59724 | 39758 ft | 407 kts | 288° |
| 2026-05-05 01:42 | 25.29369 | 70.53449 | 39753 ft | 407 kts | 287° |
| 2026-05-05 01:42 | 25.31003 | 70.47082 | 39749 ft | 406 kts | 287° |
| 2026-05-05 01:43 | 25.32565 | 70.40851 | 39742 ft | 406 kts | 287° |
| 2026-05-05 01:43 | 25.34259 | 70.34531 | 39740 ft | 406 kts | 290° |
| 2026-05-05 01:44 | 25.36186 | 70.28291 | 39745 ft | 407 kts | 289° |
| 2026-05-05 01:44 | 25.38117 | 70.22027 | 39744 ft | 406 kts | 289° |
| 2026-05-05 01:45 | 25.40022 | 70.15846 | 39746 ft | 406 kts | 289° |
| 2026-05-05 01:45 | 25.41871 | 70.09840 | 39742 ft | 406 kts | 289° |
| 2026-05-05 01:46 | 25.43783 | 70.03624 | 39742 ft | 406 kts | 289° |
| 2026-05-05 01:46 | 25.45687 | 69.97427 | 39744 ft | 406 kts | 290° |
| 2026-05-05 01:47 | 25.47610 | 69.91162 | 39741 ft | 406 kts | 289° |
| 2026-05-05 01:47 | 25.49533 | 69.84885 | 39731 ft | 406 kts | 289° |
| 2026-05-05 01:48 | 25.50962 | 69.78372 | 39727 ft | 409 kts | 278° |
| 2026-05-05 01:48 | 25.50714 | 69.71685 | 39724 ft | 415 kts | 264° |
| 2026-05-05 01:49 | 25.49265 | 69.65056 | 39720 ft | 418 kts | 260° |
| 2026-05-05 01:49 | 25.47984 | 69.59475 | 39716 ft | 419 kts | 261° |
| 2026-05-05 01:50 | 25.46629 | 69.53565 | 39716 ft | 419 kts | 260° |
| 2026-05-05 01:50 | 25.45120 | 69.46975 | 39715 ft | 419 kts | 261° |
| 2026-05-05 01:51 | 25.44374 | 69.43715 | 39367 ft | 423 kts | 261° |
| 2026-05-05 01:51 | 25.43600 | 69.40339 | 38778 ft | 419 kts | 261° |
| 2026-05-05 01:51 | 25.42869 | 69.37157 | 38242 ft | 412 kts | 261° |
| 2026-05-05 01:51 | 25.42170 | 69.34115 | 37765 ft | 408 kts | 261° |
| 2026-05-05 01:52 | 25.41471 | 69.31063 | 37267 ft | 408 kts | 261° |
| 2026-05-05 01:52 | 25.40775 | 69.28027 | 36738 ft | 408 kts | 261° |
| 2026-05-05 01:52 | 25.40069 | 69.24954 | 36196 ft | 409 kts | 261° |
| 2026-05-05 01:52 | 25.39328 | 69.21722 | 35626 ft | 410 kts | 261° |
| 2026-05-05 01:53 | 25.38587 | 69.18500 | 35054 ft | 410 kts | 261° |
| 2026-05-05 01:53 | 25.37826 | 69.15191 | 34470 ft | 411 kts | 261° |
| 2026-05-05 01:53 | 25.37080 | 69.11949 | 33894 ft | 413 kts | 261° |
| 2026-05-05 01:53 | 25.36328 | 69.08682 | 33312 ft | 415 kts | 261° |
| 2026-05-05 01:54 | 25.35569 | 69.05392 | 32724 ft | 414 kts | 261° |
| 2026-05-05 01:54 | 25.34815 | 69.02131 | 32165 ft | 412 kts | 262° |
| 2026-05-05 01:54 | 25.34101 | 68.99047 | 31580 ft | 410 kts | 262° |
| 2026-05-05 01:54 | 25.33377 | 68.95922 | 31031 ft | 406 kts | 262° |
| 2026-05-05 01:55 | 25.32659 | 68.92830 | 30475 ft | 402 kts | 262° |
| 2026-05-05 01:55 | 25.31963 | 68.89830 | 29941 ft | 399 kts | 262° |
| 2026-05-05 01:55 | 25.31245 | 68.86736 | 29386 ft | 397 kts | 262° |
| 2026-05-05 01:55 | 25.30531 | 68.83659 | 28842 ft | 395 kts | 262° |
| 2026-05-05 01:56 | 25.29807 | 68.80547 | 28293 ft | 393 kts | 262° |
| 2026-05-05 01:56 | 25.29087 | 68.77450 | 27724 ft | 390 kts | 262° |
| 2026-05-05 01:56 | 25.28382 | 68.74424 | 27197 ft | 389 kts | 262° |
| 2026-05-05 01:56 | 25.27669 | 68.71366 | 26638 ft | 387 kts | 261° |
| 2026-05-05 01:57 | 25.26979 | 68.68406 | 26106 ft | 385 kts | 261° |
| 2026-05-05 01:57 | 25.26287 | 68.65443 | 25571 ft | 383 kts | 261° |
| 2026-05-05 01:57 | 25.25609 | 68.62539 | 25051 ft | 381 kts | 261° |
| 2026-05-05 01:57 | 25.24910 | 68.59549 | 24517 ft | 378 kts | 261° |
| 2026-05-05 01:58 | 25.24203 | 68.56529 | 23980 ft | 376 kts | 260° |
| 2026-05-05 01:58 | 25.23526 | 68.53639 | 23455 ft | 375 kts | 259° |
| 2026-05-05 01:58 | 25.22860 | 68.50801 | 22942 ft | 373 kts | 259° |
| 2026-05-05 01:58 | 25.22194 | 68.47964 | 22428 ft | 371 kts | 259° |
| 2026-05-05 01:59 | 25.21519 | 68.45090 | 21928 ft | 369 kts | 259° |
| 2026-05-05 01:59 | 25.20834 | 68.42178 | 21414 ft | 368 kts | 259° |
| 2026-05-05 01:59 | 25.20146 | 68.39256 | 20898 ft | 366 kts | 259° |
| 2026-05-05 01:59 | 25.19461 | 68.36348 | 20376 ft | 364 kts | 259° |
| 2026-05-05 02:00 | 25.18796 | 68.33529 | 19876 ft | 363 kts | 258° |
| 2026-05-05 02:00 | 25.18152 | 68.30800 | 19393 ft | 361 kts | 258° |
| 2026-05-05 02:00 | 25.17479 | 68.27952 | 18883 ft | 359 kts | 258° |
| 2026-05-05 02:00 | 25.16802 | 68.25087 | 18370 ft | 357 kts | 258° |
| 2026-05-05 02:01 | 25.16129 | 68.22245 | 17866 ft | 356 kts | 258° |
| 2026-05-05 02:01 | 25.15451 | 68.19383 | 17352 ft | 355 kts | 258° |
| 2026-05-05 02:01 | 25.14787 | 68.16581 | 16854 ft | 354 kts | 258° |
| 2026-05-05 02:01 | 25.14112 | 68.13736 | 16350 ft | 351 kts | 258° |
| 2026-05-05 02:02 | 25.13455 | 68.10972 | 15850 ft | 347 kts | 259° |
| 2026-05-05 02:02 | 25.12790 | 68.08179 | 15349 ft | 343 kts | 259° |
| 2026-05-05 02:02 | 25.12134 | 68.05422 | 14861 ft | 338 kts | 259° |
| 2026-05-05 02:02 | 25.11479 | 68.02673 | 14361 ft | 334 kts | 260° |
| 2026-05-05 02:03 | 25.10850 | 68.00037 | 13901 ft | 330 kts | 260° |
| 2026-05-05 02:03 | 25.10242 | 67.97489 | 13446 ft | 327 kts | 261° |
| 2026-05-05 02:03 | 25.09617 | 67.94869 | 12963 ft | 324 kts | 261° |
| 2026-05-05 02:03 | 25.09011 | 67.92335 | 12526 ft | 319 kts | 260° |
| 2026-05-05 02:04 | 25.08401 | 67.89780 | 12070 ft | 316 kts | 260° |
| 2026-05-05 02:04 | 25.07789 | 67.87220 | 11606 ft | 313 kts | 259° |
| 2026-05-05 02:04 | 25.07182 | 67.84684 | 11150 ft | 310 kts | 259° |
| 2026-05-05 02:04 | 25.06589 | 67.82208 | 10699 ft | 308 kts | 258° |
| 2026-05-05 02:05 | 25.06009 | 67.79789 | 10279 ft | 304 kts | 258° |
| 2026-05-05 02:05 | 25.05424 | 67.77354 | 10020 ft | 295 kts | 258° |
| 2026-05-05 02:05 | 25.04847 | 67.74947 | 9603 ft | 292 kts | 257° |
| 2026-05-05 02:05 | 25.04300 | 67.72668 | 9222 ft | 289 kts | 257° |
| 2026-05-05 02:06 | 25.03760 | 67.70420 | 8826 ft | 286 kts | 257° |
| 2026-05-05 02:06 | 25.03208 | 67.68125 | 8428 ft | 283 kts | 257° |
| 2026-05-05 02:06 | 25.02668 | 67.65880 | 8020 ft | 281 kts | 257° |
| 2026-05-05 02:06 | 25.02150 | 67.63728 | 7638 ft | 279 kts | 257° |
| 2026-05-05 02:07 | 25.01612 | 67.61493 | 7238 ft | 276 kts | 257° |
| 2026-05-05 02:07 | 25.01103 | 67.59356 | 6860 ft | 273 kts | 257° |
| 2026-05-05 02:07 | 25.00597 | 67.57234 | 6480 ft | 271 kts | 257° |
| 2026-05-05 02:07 | 25.00099 | 67.55145 | 6107 ft | 269 kts | 257° |
| 2026-05-05 02:08 | 24.99606 | 67.53076 | 5740 ft | 267 kts | 257° |
| 2026-05-05 02:08 | 24.99113 | 67.51013 | 5371 ft | 265 kts | 257° |
| 2026-05-05 02:08 | 24.98637 | 67.49020 | 5013 ft | 262 kts | 257° |
| 2026-05-05 02:08 | 24.98168 | 67.47058 | 4660 ft | 259 kts | 258° |
| 2026-05-05 02:09 | 24.97698 | 67.45094 | 4296 ft | 257 kts | 257° |
| 2026-05-05 02:09 | 24.97218 | 67.43096 | 3941 ft | 254 kts | 258° |
| 2026-05-05 02:09 | 24.96761 | 67.41202 | 3595 ft | 252 kts | 257° |
| 2026-05-05 02:09 | 24.96304 | 67.39311 | 3251 ft | 250 kts | 258° |
| 2026-05-05 02:10 | 24.95849 | 67.37428 | 2991 ft | 243 kts | 257° |
| 2026-05-05 02:10 | 24.95159 | 67.35731 | 2950 ft | 236 kts | 231° |
| 2026-05-05 02:10 | 24.93751 | 67.34779 | 2954 ft | 241 kts | 192° |
| 2026-05-05 02:10 | 24.92098 | 67.34929 | 2959 ft | 243 kts | 154° |
| 2026-05-05 02:11 | 24.90874 | 67.36162 | 2967 ft | 234 kts | 114° |
| 2026-05-05 02:11 | 24.90618 | 67.37889 | 2973 ft | 227 kts | 77° |
| 2026-05-05 02:11 | 24.90998 | 67.39576 | 2978 ft | 227 kts | 72° |
| 2026-05-05 02:11 | 24.91408 | 67.41267 | 2973 ft | 227 kts | 72° |
| 2026-05-05 02:12 | 24.91813 | 67.42964 | 2976 ft | 227 kts | 72° |
| 2026-05-05 02:12 | 24.92662 | 67.46339 | 2977 ft | 226 kts | 62° |
| 2026-05-05 02:12 | 24.93653 | 67.47630 | 2975 ft | 218 kts | 28° |
| 2026-05-05 02:13 | 24.95101 | 67.48088 | 2983 ft | 208 kts | 356° |
| 2026-05-05 02:13 | 24.96468 | 67.47629 | 2985 ft | 205 kts | 326° |
| 2026-05-05 02:13 | 24.97408 | 67.46454 | 2986 ft | 207 kts | 295° |
| 2026-05-05 02:13 | 24.97643 | 67.44877 | 2984 ft | 212 kts | 264° |
| 2026-05-05 02:14 | 24.97306 | 67.43271 | 2990 ft | 215 kts | 258° |
| 2026-05-05 02:14 | 24.96927 | 67.41611 | 2982 ft | 220 kts | 257° |
| 2026-05-05 02:14 | 24.96513 | 67.39911 | 2980 ft | 235 kts | 257° |
| 2026-05-05 02:14 | 24.96076 | 67.38159 | 2973 ft | 237 kts | 257° |
| 2026-05-05 02:15 | 24.95632 | 67.36386 | 2973 ft | 233 kts | 257° |
| 2026-05-05 02:15 | 24.95211 | 67.34718 | 2980 ft | 216 kts | 257° |
| 2026-05-05 02:15 | 24.94812 | 67.33130 | 2807 ft | 207 kts | 257° |
| 2026-05-05 02:15 | 24.94416 | 67.31551 | 2543 ft | 196 kts | 257° |
| 2026-05-05 02:16 | 24.94041 | 67.30064 | 2298 ft | 189 kts | 257° |
| 2026-05-05 02:16 | 24.93670 | 67.28588 | 2043 ft | 186 kts | 257° |
| 2026-05-05 02:16 | 24.93315 | 67.27183 | 1797 ft | 175 kts | 257° |
| 2026-05-05 02:16 | 24.92990 | 67.25889 | 1566 ft | 169 kts | 257° |
| 2026-05-05 02:17 | 24.92670 | 67.24616 | 1348 ft | 165 kts | 257° |
| 2026-05-05 02:17 | 24.92350 | 67.23344 | 1115 ft | 163 kts | 256° |
| 2026-05-05 02:17 | 24.92032 | 67.22083 | 914 ft | 162 kts | 256° |
| 2026-05-05 02:17 | 24.91729 | 67.20890 | 711 ft | 148 kts | 255° |
| 2026-05-05 02:18 | 24.91448 | 67.19775 | 506 ft | 142 kts | 255° |
| 2026-05-05 02:18 | 24.91176 | 67.18691 | 324 ft | 139 kts | 255° |
| 2026-05-05 02:18 | 24.90908 | 67.17625 | 143 ft | 138 kts | 254° |
| 2026-05-05 02:18 | 24.90656 | 67.16622 | 60 ft | 115 kts | 255° |
| 2026-05-05 02:19 | 24.90501 | 67.16007 | 59 ft | 68 kts | 253° |
| 2026-05-05 02:19 | 24.90390 | 67.15565 | 57 ft | 41 kts | 253° |
| 2026-05-05 02:19 | 24.90310 | 67.15247 | 55 ft | 41 kts | 255° |
| 2026-05-05 02:19 | 24.90235 | 67.15050 | 54 ft | 9 kts | 170° |
| 2026-05-05 02:20 | 24.90190 | 67.15114 | 53 ft | 13 kts | 106° |
| 2026-05-05 02:20 | 24.90188 | 67.15121 | 53 ft | 0 kts | 106° |
| 2026-05-05 02:21 | 24.90181 | 67.15149 | 53 ft | 17 kts | 105° |
| 2026-05-05 02:22 | 24.90143 | 67.15275 | 52 ft | 10 kts | 158° |
| 2026-05-05 02:22 | 24.90101 | 67.15204 | 52 ft | 13 kts | 254° |
| 2026-05-05 02:22 | 24.90070 | 67.15091 | 52 ft | 13 kts | 241° |
| 2026-05-05 02:22 | 24.89980 | 67.15106 | 52 ft | 15 kts | 189° |
| 2026-05-05 02:23 | 24.89880 | 67.15039 | 52 ft | 18 kts | 214° |
| 2026-05-05 02:23 | 24.89781 | 67.14936 | 52 ft | 20 kts | 211° |
| 2026-05-05 02:23 | 24.89670 | 67.14863 | 52 ft | 0 kts | 211° |
| 2026-05-05 02:24 | 24.89661 | 67.14860 | 52 ft | 11 kts | 193° |
| 2026-05-05 02:24 | 24.89609 | 67.14868 | 52 ft | 5 kts | 138° |
| 2026-05-05 02:24 | 24.89606 | 67.14915 | 52 ft | 9 kts | 52° |
| 2026-05-05 02:24 | 24.89643 | 67.14981 | 52 ft | 12 kts | 85° |
| 2026-05-05 02:25 | 24.89636 | 67.15028 | 52 ft | 0 kts | 108° |
| 2026-05-05 02:25 | 24.89634 | 67.15034 | 52 ft | 0 kts | 116° |